Time;durP1;ratioP1;P1;durP2;ratioP2;P2;SDS_P1;SDS_P2;PMS_P1;PMS_P2;Temp;Humidity;BMP_temperature;BMP_pressure;BME280_temperature;BME280_humidity;BME280_pressure;Samples;Min_cycle;Max_cycle;Signal;HPM_P1;HPM_P2
2021/03/05 00:00:34;;;;;;;6.28;2.25;;;4.00;99.90;;;;;;5074034;28;20025;-76
2021/03/05 00:03:00;;;;;;;7.35;2.88;;;4.00;99.90;;;;;;5073494;28;20082;-75
2021/03/05 00:05:26;;;;;;;6.40;2.03;;;4.00;99.90;;;;;;5074230;28;20037;-76
2021/03/05 00:07:52;;;;;;;13.60;3.13;;;4.00;99.90;;;;;;5072915;28;20016;-77
2021/03/05 00:10:23;;;;;;;7.70;2.95;;;4.00;99.90;;;;;;5074209;28;20012;-74
2021/03/05 00:12:49;;;;;;;5.53;2.22;;;4.00;99.90;;;;;;5072679;28;20446;-75
2021/03/05 00:15:15;;;;;;;5.72;2.28;;;4.00;99.90;;;;;;5073786;28;20052;-75
2021/03/05 00:17:40;;;;;;;6.53;2.20;;;4.00;99.90;;;;;;5075290;22;20398;-76
2021/03/05 00:20:12;;;;;;;6.78;2.47;;;4.00;99.90;;;;;;5091396;22;20044;-74
2021/03/05 00:22:37;;;;;;;6.53;2.83;;;4.00;99.90;;;;;;5094229;28;20132;-74
2021/03/05 00:25:04;;;;;;;8.23;2.42;;;3.90;99.90;;;;;;5093992;28;20063;-75
2021/03/05 00:27:30;;;;;;;9.63;2.72;;;3.80;99.90;;;;;;5092817;28;20127;-74
2021/03/05 00:29:57;;;;;;;5.80;2.28;;;3.70;99.90;;;;;;5092911;28;20114;-74
2021/03/05 00:32:22;;;;;;;4.80;1.80;;;3.70;99.90;;;;;;5094161;28;20024;-74
2021/03/05 00:34:48;;;;;;;6.78;2.53;;;3.60;99.90;;;;;;5094244;28;20386;-75
2021/03/05 00:37:13;;;;;;;8.50;1.98;;;3.50;99.90;;;;;;5094239;28;20474;-74
2021/03/05 00:39:39;;;;;;;4.18;1.83;;;3.40;99.90;;;;;;5093087;28;20077;-75
2021/03/05 00:42:05;;;;;;;7.28;1.73;;;3.30;99.90;;;;;;5093969;28;20020;-75
2021/03/05 00:44:31;;;;;;;11.10;2.58;;;3.20;99.90;;;;;;5093777;28;20044;-75
2021/03/05 00:46:56;;;;;;;15.65;3.45;;;3.10;99.90;;;;;;5092965;28;20028;-75
2021/03/05 00:49:22;;;;;;;4.88;2.85;;;3.00;99.90;;;;;;5094224;28;20053;-75
2021/03/05 00:51:47;;;;;;;6.35;2.45;;;2.90;99.90;;;;;;5094112;28;20050;-76
2021/03/05 00:54:13;;;;;;;6.53;2.35;;;2.80;99.90;;;;;;5092676;28;20035;-75
2021/03/05 00:56:38;;;;;;;7.07;2.85;;;2.80;99.90;;;;;;5093762;28;20027;-75
2021/03/05 00:59:04;;;;;;;6.28;2.33;;;2.70;99.90;;;;;;5093096;28;20107;-74
2021/03/05 01:01:30;;;;;;;11.43;3.53;;;2.60;99.90;;;;;;5094028;28;20120;-75
2021/03/05 01:03:55;;;;;;;6.55;2.53;;;2.50;99.90;;;;;;5092808;28;20036;-74
2021/03/05 01:06:21;;;;;;;7.15;2.58;;;2.50;99.90;;;;;;5092489;28;20486;-74
2021/03/05 01:08:46;;;;;;;7.05;2.72;;;2.40;99.90;;;;;;5094355;28;20035;-75
2021/03/05 01:11:12;;;;;;;5.90;1.92;;;2.30;99.90;;;;;;5092191;28;20113;-74
2021/03/05 01:13:37;;;;;;;7.78;2.25;;;2.30;99.90;;;;;;5087963;28;20025;-75
2021/03/05 01:16:03;;;;;;;8.43;2.25;;;2.20;99.90;;;;;;5073525;28;20359;-74
2021/03/05 01:18:28;;;;;;;6.47;2.22;;;2.10;99.90;;;;;;5072114;28;20020;-74
2021/03/05 01:20:54;;;;;;;9.50;2.67;;;2.10;99.90;;;;;;5073407;28;20025;-74
2021/03/05 01:23:20;;;;;;;6.68;2.17;;;2.00;99.90;;;;;;5073076;28;20056;-75
2021/03/05 01:25:45;;;;;;;7.93;2.30;;;2.00;99.90;;;;;;5071667;28;20111;-76
2021/03/05 01:28:12;;;;;;;8.85;2.72;;;1.90;99.90;;;;;;5073159;28;20107;-76
2021/03/05 01:30:38;;;;;;;8.32;2.85;;;1.90;99.90;;;;;;5079901;28;20074;-76
2021/03/05 01:33:05;;;;;;;5.43;2.00;;;1.90;99.90;;;;;;5096331;28;20032;-76
2021/03/05 01:35:30;;;;;;;6.18;2.35;;;1.80;99.90;;;;;;5097355;28;20073;-76
2021/03/05 01:37:56;;;;;;;6.93;2.45;;;1.80;99.90;;;;;;5096892;28;20020;-75
2021/03/05 01:40:34;;;;;;;9.98;2.67;;;1.70;99.90;;;;;;5077905;28;20074;-75
2021/03/05 01:43:01;;;;;;;6.25;2.30;;;1.70;99.90;;;;;;5081200;28;20028;-76
2021/03/05 01:45:30;;;;;;;7.15;2.28;;;1.70;99.90;;;;;;5097238;28;20028;-76
2021/03/05 01:47:57;;;;;;;;;;;1.70;99.90;;;;;;5096041;28;20020;-76
2021/03/05 01:50:39;;;;;;;9.63;2.33;;;1.70;99.90;;;;;;5095333;28;19953;-76
2021/03/05 01:53:06;;;;;;;10.25;2.95;;;1.60;99.90;;;;;;5096834;28;20027;-76
2021/03/05 01:55:33;;;;;;;6.47;2.47;;;1.60;99.90;;;;;;5096855;28;20047;-76
2021/03/05 01:57:59;;;;;;;7.55;2.65;;;1.50;99.90;;;;;;5096516;28;20111;-76
2021/03/05 02:00:41;;;;;;;7.22;2.50;;;1.50;99.90;;;;;;5095581;28;20024;-76
2021/03/05 02:03:08;;;;;;;10.13;2.83;;;1.40;99.90;;;;;;5095983;28;20081;-76
2021/03/05 02:05:37;;;;;;;10.00;2.80;;;1.30;99.90;;;;;;5095467;28;20073;-76
2021/03/05 02:08:04;;;;;;;9.52;2.40;;;1.30;99.90;;;;;;5095714;28;20028;-75
2021/03/05 02:10:30;;;;;;;7.85;2.70;;;1.30;99.90;;;;;;5105626;22;20175;-75
2021/03/05 02:12:55;;;;;;;8.77;2.80;;;1.20;99.90;;;;;;5056275;28;20542;-75
2021/03/05 02:15:22;;;;;;;11.00;2.42;;;1.20;99.90;;;;;;5072153;28;20029;-76
2021/03/05 02:18:12;;;;;;;9.15;2.40;;;1.20;99.90;;;;;;5055610;28;20194;-75
2021/03/05 02:20:53;;;;;;;8.70;2.38;;;1.10;99.90;;;;;;5070347;22;20384;-75
2021/03/05 02:24:05;;;;;;;6.88;2.67;;;1.10;99.90;;;;;;5056216;28;20075;-75
2021/03/05 02:27:08;;;;;;;8.27;2.65;;;1.00;99.90;;;;;;5034720;28;20033;-74
2021/03/05 02:29:55;;;;;;;10.15;2.88;;;0.90;99.90;;;;;;5036393;28;20064;-75
2021/03/05 02:32:54;;;;;;;15.32;2.97;;;0.90;99.90;;;;;;5061430;22;20099;-75
2021/03/05 02:35:22;;;;;;;7.97;1.50;;;0.80;99.90;;;;;;5035902;28;20065;-77
2021/03/05 02:37:49;;;;;;;9.02;2.38;;;0.80;99.90;;;;;;5051530;28;20032;-75
2021/03/05 02:40:39;;;;;;;10.15;2.45;;;0.80;99.90;;;;;;5051817;28;20476;-75
2021/03/05 02:43:10;;;;;;;8.32;2.35;;;0.80;99.90;;;;;;5034679;28;20030;-77
2021/03/05 02:45:38;;;;;;;9.63;1.98;;;0.70;99.90;;;;;;5049506;28;20037;-76
2021/03/05 02:48:12;;;;;;;9.23;1.98;;;0.70;99.90;;;;;;5051431;28;20060;-74
2021/03/05 02:50:42;;;;;;;6.38;1.83;;;0.80;99.90;;;;;;5036170;28;20036;-76
2021/03/05 02:53:11;;;;;;;9.80;2.28;;;0.70;99.90;;;;;;5072368;22;20044;-78
2021/03/05 02:55:39;;;;;;;6.15;2.47;;;0.70;99.90;;;;;;5075421;28;20031;-75
2021/03/05 02:58:06;;;;;;;8.07;2.28;;;0.70;99.90;;;;;;5075511;28;20390;-76
2021/03/05 03:00:32;;;;;;;9.88;2.53;;;0.70;99.90;;;;;;5075496;28;20154;-77
2021/03/05 03:02:58;;;;;;;8.32;2.95;;;0.60;99.90;;;;;;5075560;28;20078;-77
2021/03/05 03:05:29;;;;;;;8.38;2.13;;;0.60;99.90;;;;;;5074332;28;20074;-75
2021/03/05 03:07:57;;;;;;;11.98;2.17;;;0.60;99.90;;;;;;5080463;22;20132;-75
2021/03/05 03:10:26;;;;;;;10.15;2.95;;;0.50;99.90;;;;;;5063657;22;20064;-77
2021/03/05 03:12:54;;;;;;;11.90;2.70;;;0.40;99.90;;;;;;5074999;28;20032;-76
2021/03/05 03:15:22;;;;;;;7.57;2.60;;;0.50;99.90;;;;;;5105882;22;20125;-76
2021/03/05 03:17:48;;;;;;;5.57;1.67;;;0.40;99.90;;;;;;5089889;22;20127;-76
2021/03/05 03:20:17;;;;;;;8.88;1.60;;;0.40;99.90;;;;;;5057150;28;20363;-75
2021/03/05 03:22:43;;;;;;;6.68;1.95;;;0.40;99.90;;;;;;5074895;28;20028;-77
2021/03/05 03:25:11;;;;;;;8.77;1.48;;;0.40;99.90;;;;;;5075049;28;20029;-77
2021/03/05 03:27:36;;;;;;;6.38;1.40;;;0.30;99.90;;;;;;5074571;28;20028;-76
2021/03/05 03:30:04;;;;;;;7.80;1.88;;;0.20;99.90;;;;;;5074907;28;20489;-76
2021/03/05 03:32:30;;;;;;;10.77;1.45;;;0.20;99.90;;;;;;5090171;22;20052;-75
2021/03/05 03:34:57;;;;;;;4.80;1.17;;;0.10;99.90;;;;;;5074737;28;20394;-75
2021/03/05 03:37:23;;;;;;;5.22;1.50;;;0.10;99.90;;;;;;5090087;22;20440;-75
2021/03/05 03:39:49;;;;;;;15.05;2.17;;;0.10;99.90;;;;;;5073336;28;20032;-75
2021/03/05 03:42:14;;;;;;;7.22;1.73;;;0.10;99.90;;;;;;5072888;28;20032;-75
2021/03/05 03:44:40;;;;;;;9.50;1.35;;;0.00;99.90;;;;;;5075021;28;20020;-75
2021/03/05 03:47:05;;;;;;;9.30;2.15;;;0.00;99.90;;;;;;5075179;28;20017;-75
2021/03/05 03:49:31;;;;;;;3.97;1.02;;;0.00;99.90;;;;;;5074269;28;20020;-76
2021/03/05 03:52:01;;;;;;;9.10;1.20;;;0.00;99.90;;;;;;5071819;22;20045;-78
2021/03/05 03:54:29;;;;;;;12.90;1.98;;;0.00;99.90;;;;;;5054369;28;20410;-76
2021/03/05 03:56:58;;;;;;;7.30;1.40;;;0.00;99.90;;;;;;5036029;28;20021;-76
2021/03/05 03:59:26;;;;;;;6.45;0.77;;;0.00;99.90;;;;;;5054576;28;20021;-75
2021/03/05 04:01:55;;;;;;;11.27;2.25;;;0.10;99.90;;;;;;5054555;28;20502;-76
2021/03/05 04:04:22;;;;;;;7.72;0.80;;;0.00;99.90;;;;;;5054535;28;20021;-76
2021/03/05 04:06:50;;;;;;;4.95;0.60;;;0.10;99.90;;;;;;5044226;28;20040;-75
2021/03/05 04:09:17;;;;;;;12.65;1.23;;;0.00;99.90;;;;;;5034392;28;20068;-75
2021/03/05 04:11:43;;;;;;;8.32;1.20;;;0.00;99.90;;;;;;5016240;28;20033;-77
2021/03/05 04:14:09;;;;;;;10.13;0.65;;;0.00;99.90;;;;;;5016093;28;20411;-75
2021/03/05 04:16:36;;;;;;;8.10;1.00;;;0.00;99.90;;;;;;5071359;22;20052;-75
2021/03/05 04:19:02;;;;;;;6.30;0.45;;;-0.10;99.90;;;;;;5073007;28;20021;-75
2021/03/05 04:21:34;;;;;;;4.80;0.40;;;0.00;99.90;;;;;;5073078;28;20021;-75
2021/03/05 04:24:00;;;;;;;11.23;1.25;;;-0.10;99.90;;;;;;5072854;28;20029;-74
2021/03/05 04:26:26;;;;;;;9.85;1.52;;;-0.10;99.90;;;;;;5074050;28;20033;-74
2021/03/05 04:28:51;;;;;;;5.28;0.40;;;0.00;99.90;;;;;;5072744;28;20024;-74
2021/03/05 04:31:17;;;;;;;6.88;0.68;;;0.00;99.90;;;;;;5073857;28;20024;-74
2021/03/05 04:33:42;;;;;;;7.05;1.00;;;0.00;99.90;;;;;;5074229;28;20032;-75
2021/03/05 04:36:08;;;;;;;4.10;0.25;;;0.00;99.90;;;;;;5074076;28;20025;-75
2021/03/05 04:38:33;;;;;;;4.53;0.28;;;0.00;99.90;;;;;;5072832;28;20025;-74
2021/03/05 04:40:59;;;;;;;6.72;0.28;;;0.00;99.90;;;;;;5072283;28;20016;-74
2021/03/05 04:43:25;;;;;;;9.32;0.60;;;-0.10;99.90;;;;;;5089342;28;20041;-74
2021/03/05 04:45:51;;;;;;;10.15;0.60;;;-0.10;99.90;;;;;;5089803;28;20119;-75
2021/03/05 04:48:17;;;;;;;17.63;1.38;;;0.00;99.90;;;;;;5088578;28;20101;-75
2021/03/05 04:50:42;;;;;;;9.20;0.88;;;-0.10;99.90;;;;;;5053466;28;20175;-75
2021/03/05 04:53:08;;;;;;;4.40;0.30;;;-0.10;99.90;;;;;;5053793;28;20017;-75
2021/03/05 04:55:34;;;;;;;4.10;0.22;;;-0.10;99.90;;;;;;5054125;28;20028;-75
2021/03/05 04:57:59;;;;;;;10.90;0.98;;;-0.10;99.90;;;;;;5068425;28;20550;-74
2021/03/05 05:00:28;;;;;;;9.68;1.52;;;-0.10;99.90;;;;;;5053897;28;20025;-74
2021/03/05 05:02:54;;;;;;;10.82;0.80;;;0.00;99.90;;;;;;5072251;23;20040;-74
2021/03/05 05:05:20;;;;;;;6.00;0.82;;;-0.10;99.90;;;;;;5072281;28;20405;-74
2021/03/05 05:07:45;;;;;;;6.65;0.15;;;-0.20;99.90;;;;;;5077506;28;20440;-75
2021/03/05 05:10:14;;;;;;;7.60;0.45;;;-0.20;99.90;;;;;;5059307;28;20021;-75
2021/03/05 05:12:39;;;;;;;9.80;0.22;;;-0.20;99.90;;;;;;5077740;28;20051;-75
2021/03/05 05:15:06;;;;;;;8.85;0.30;;;-0.20;99.90;;;;;;5058999;28;20028;-75
2021/03/05 05:17:33;;;;;;;6.13;0.15;;;-0.30;99.90;;;;;;5058922;28;20028;-74
2021/03/05 05:19:58;;;;;;;11.15;1.25;;;-0.30;99.90;;;;;;5076196;28;20017;-74
2021/03/05 05:22:24;;;;;;;6.57;0.10;;;-0.40;99.90;;;;;;5059451;28;20035;-75
2021/03/05 05:24:49;;;;;;;5.05;0.65;;;-0.40;99.90;;;;;;5077841;28;20054;-74
2021/03/05 05:27:15;;;;;;;8.57;0.20;;;-0.50;99.90;;;;;;5059190;28;20071;-74
2021/03/05 05:29:41;;;;;;;3.90;0.65;;;-0.50;99.90;;;;;;5059133;28;20521;-74
2021/03/05 05:32:06;;;;;;;12.35;0.68;;;-0.50;99.90;;;;;;5076936;28;20021;-74
2021/03/05 05:34:32;;;;;;;6.07;0.30;;;-0.50;99.90;;;;;;5077150;28;20507;-74
2021/03/05 05:36:57;;;;;;;4.95;0.73;;;-0.50;99.90;;;;;;5077656;28;20047;-74
2021/03/05 05:39:23;;;;;;;10.98;1.27;;;-0.50;99.90;;;;;;5077282;28;20017;-73
2021/03/05 05:41:48;;;;;;;9.27;0.40;;;-0.60;99.90;;;;;;5076850;28;20055;-73
2021/03/05 05:44:14;;;;;;;12.10;1.42;;;-0.60;99.90;;;;;;5077108;28;20025;-73
2021/03/05 05:46:40;;;;;;;3.45;0.28;;;-0.70;99.90;;;;;;5076880;28;20095;-73
2021/03/05 05:49:07;;;;;;;7.13;1.38;;;-0.80;99.90;;;;;;5059447;28;20020;-74
2021/03/05 05:51:34;;;;;;;10.00;0.40;;;-0.90;99.90;;;;;;5077495;28;20019;-74
2021/03/05 05:54:06;;;;;;;9.52;0.52;;;-0.90;99.90;;;;;;5077041;28;20032;-74
2021/03/05 05:56:31;;;;;;;9.00;0.80;;;-0.90;99.90;;;;;;5074007;22;20371;-75
2021/03/05 05:58:58;;;;;;;7.38;0.40;;;-0.90;99.90;;;;;;5077336;28;20033;-75
2021/03/05 06:01:24;;;;;;;5.03;0.20;;;-1.00;99.90;;;;;;5076983;28;20020;-74
2021/03/05 06:03:49;;;;;;;5.88;0.45;;;-1.00;99.90;;;;;;5075483;28;20029;-75
2021/03/05 06:06:16;;;;;;;4.45;0.20;;;-1.10;99.90;;;;;;5075230;28;20028;-75
2021/03/05 06:08:42;;;;;;;4.43;0.22;;;-1.10;99.90;;;;;;5075286;28;20074;-74
2021/03/05 06:11:07;;;;;;;9.52;0.20;;;-1.20;99.90;;;;;;5076780;28;20056;-74
2021/03/05 06:13:33;;;;;;;7.95;0.20;;;-1.20;99.90;;;;;;5075022;28;20534;-75
2021/03/05 06:16:16;;;;;;;4.55;0.20;;;-1.20;99.90;;;;;;5076571;28;20025;-75
2021/03/05 06:18:42;;;;;;;10.27;0.43;;;-1.20;99.90;;;;;;5056678;28;20024;-75
2021/03/05 06:21:10;;;;;;;9.77;0.45;;;-1.20;99.90;;;;;;5054753;28;20013;-74
2021/03/05 06:23:54;;;;;;;5.80;0.28;;;-1.20;99.90;;;;;;5071216;28;20024;-74
2021/03/05 06:26:20;;;;;;;9.18;0.80;;;-1.20;99.90;;;;;;5056042;28;20021;-74
2021/03/05 06:29:03;;;;;;;8.70;0.57;;;-1.10;99.90;;;;;;5055829;28;20025;-74
2021/03/05 06:31:31;;;;;;;6.18;0.25;;;-1.10;99.90;;;;;;5063780;28;20020;-75
2021/03/05 06:34:00;;;;;;;10.60;0.30;;;-1.10;99.90;;;;;;5076012;28;20047;-76
2021/03/05 06:36:26;;;;;;;6.72;0.63;;;-1.10;99.90;;;;;;5076443;28;20063;-75
2021/03/05 06:38:52;;;;;;;8.32;0.40;;;-1.10;99.90;;;;;;5074542;28;20024;-75
2021/03/05 06:41:21;;;;;;;7.18;0.35;;;-1.00;99.90;;;;;;5076149;28;20104;-74
2021/03/05 06:43:54;;;;;;;11.23;0.95;;;-1.00;99.90;;;;;;5074752;28;20119;-75
2021/03/05 06:46:41;;;;;;;6.30;0.90;;;-1.00;99.90;;;;;;5073926;28;20123;-75
2021/03/05 06:49:18;;;;;;;7.63;0.50;;;-0.90;99.90;;;;;;5071904;28;20039;-75
2021/03/05 06:51:55;;;;;;;11.07;0.98;;;-0.80;99.90;;;;;;5065237;28;20078;-75
2021/03/05 06:54:21;;;;;;;6.13;0.60;;;-0.70;99.90;;;;;;5074014;28;20043;-75
2021/03/05 06:56:49;;;;;;;9.63;0.47;;;-0.60;99.90;;;;;;5076941;28;20028;-74
2021/03/05 06:59:22;;;;;;;5.47;0.43;;;-0.60;99.90;;;;;;5076496;28;20099;-74
2021/03/05 07:01:56;;;;;;;9.05;0.47;;;-0.50;99.90;;;;;;5075647;28;20020;-73
2021/03/05 07:04:25;;;;;;;4.15;0.47;;;-0.30;99.90;;;;;;5075629;28;20490;-75
2021/03/05 07:07:06;;;;;;;;;;;-0.20;99.90;;;;;;5075076;28;20031;-74
2021/03/05 07:09:39;;;;;;;8.88;1.08;;;-0.10;99.90;;;;;;5073008;22;19920;-76
2021/03/05 07:12:25;;;;;;;10.38;0.80;;;0.00;99.90;;;;;;5036258;28;20032;-74
2021/03/05 07:15:10;;;;;;;10.95;0.88;;;0.10;99.90;;;;;;5023390;28;20024;-75
2021/03/05 07:17:37;;;;;;;7.72;0.63;;;0.20;99.90;;;;;;5034959;28;20039;-76
2021/03/05 07:20:04;;;;;;;10.32;0.43;;;0.30;99.90;;;;;;5118830;22;20060;-74
2021/03/05 07:22:30;;;;;;;9.85;1.25;;;0.40;99.90;;;;;;5077780;22;20048;-75
2021/03/05 07:24:57;;;;;;;5.88;0.20;;;0.50;99.90;;;;;;5075697;28;20024;-76
2021/03/05 07:27:50;;;;;;;7.70;0.82;;;0.60;99.90;;;;;;5075330;28;20036;-77
2021/03/05 07:30:19;;;;;;;9.88;1.08;;;0.70;99.90;;;;;;5099857;22;20049;-78
2021/03/05 07:32:49;;;;;;;3.85;0.40;;;0.80;99.90;;;;;;5074649;28;20050;-78
2021/03/05 07:35:23;;;;;;;6.80;0.47;;;0.90;99.90;;;;;;5056367;22;20117;-76
2021/03/05 07:37:59;;;;;;;11.40;1.08;;;1.00;99.90;;;;;;5075178;28;20115;-75
2021/03/05 07:40:26;;;;;;;6.80;0.75;;;1.10;99.90;;;;;;5102629;22;20047;-76
2021/03/05 07:42:52;;;;;;;6.35;0.20;;;1.30;99.90;;;;;;5041713;28;20027;-75
2021/03/05 07:45:18;;;;;;;5.05;1.13;;;1.30;99.90;;;;;;5055794;28;20063;-77
2021/03/05 07:47:46;;;;;;;4.10;0.45;;;1.50;99.90;;;;;;5036226;28;20040;-76
2021/03/05 07:50:14;;;;;;;8.13;0.98;;;1.60;99.90;;;;;;5063876;22;20131;-76
2021/03/05 07:52:41;;;;;;;6.28;0.47;;;1.60;99.90;;;;;;5082170;22;20045;-76
2021/03/05 07:55:07;;;;;;;8.50;0.95;;;1.70;99.90;;;;;;5066858;28;20098;-76
2021/03/05 07:57:32;;;;;;;6.15;0.40;;;1.80;99.90;;;;;;5058322;28;20056;-77
2021/03/05 08:00:01;;;;;;;11.00;0.90;;;1.90;99.90;;;;;;5054065;28;20510;-76
2021/03/05 08:02:51;;;;;;;5.57;0.50;;;2.00;99.90;;;;;;5054593;28;20079;-77
2021/03/05 08:05:38;;;;;;;6.70;0.40;;;2.10;99.90;;;;;;5028818;28;20491;-76
2021/03/05 08:08:09;;;;;;;4.47;0.30;;;2.30;99.90;;;;;;5054351;28;20079;-76
2021/03/05 08:10:37;;;;;;;5.88;0.68;;;2.40;99.90;;;;;;5053996;28;20029;-75
2021/03/05 08:14:04;;;;;;;7.38;0.10;;;2.50;99.90;;;;;;5067106;23;20065;-74
2021/03/05 08:16:28;;;;;;;9.07;0.60;;;2.50;99.90;;;;;;5033650;28;20033;-74
2021/03/05 08:19:06;;;;;;;6.55;0.45;;;2.70;99.90;;;;;;5034676;28;20489;-75
2021/03/05 08:21:55;;;;;;;5.82;0.20;;;2.80;99.90;;;;;;5034092;28;20102;-75
2021/03/05 08:24:26;;;;;;;3.00;0.00;;;2.80;99.90;;;;;;5037109;28;20468;-75
2021/03/05 08:27:16;;;;;;;2.40;0.05;;;2.90;99.90;;;;;;5034840;28;20036;-75
2021/03/05 08:29:56;;;;;;;2.63;0.00;;;3.00;99.90;;;;;;5052021;28;20533;-75
2021/03/05 08:32:33;;;;;;;0.85;0.10;;;3.10;99.90;;;;;;5051280;28;20021;-74
2021/03/05 08:34:59;;;;;;;1.08;0.13;;;4.20;99.90;;;;;;5053069;28;20040;-74
2021/03/05 08:37:33;;;;;;;1.17;0.08;;;4.70;99.00;;;;;;5051006;28;20455;-75
2021/03/05 08:40:16;;;;;;;2.85;0.00;;;3.30;94.80;;;;;;5034145;28;20045;-75
2021/03/05 08:42:46;;;;;;;3.67;0.28;;;3.30;95.70;;;;;;5047192;28;20033;-74
2021/03/05 08:45:22;;;;;;;0.82;0.00;;;3.40;94.30;;;;;;5053614;28;20364;-75
2021/03/05 08:47:50;;;;;;;6.80;0.10;;;3.50;93.00;;;;;;5038146;28;20057;-74
2021/03/05 08:50:18;;;;;;;1.00;0.32;;;3.60;91.90;;;;;;5042671;28;20099;-75
2021/03/05 08:52:46;;;;;;;0.70;0.00;;;3.70;88.10;;;;;;5050873;28;20033;-75
2021/03/05 08:55:37;;;;;;;2.40;0.40;;;3.70;84.50;;;;;;5042055;28;20021;-74
2021/03/05 08:58:04;;;;;;;1.02;0.00;;;3.80;85.00;;;;;;5052908;28;20801;-74
2021/03/05 09:00:31;;;;;;;3.55;0.00;;;3.90;80.50;;;;;;5042689;28;20025;-74
2021/03/05 09:03:06;;;;;;;1.75;0.00;;;3.90;83.10;;;;;;5048602;28;20036;-74
2021/03/05 09:05:33;;;;;;;3.95;0.00;;;4.00;76.50;;;;;;5055626;28;20045;-75
2021/03/05 09:07:59;;;;;;;4.72;0.10;;;4.10;77.30;;;;;;5070506;22;20036;-74
2021/03/05 09:10:45;;;;;;;2.95;0.00;;;3.20;77.20;;;;;;5076162;28;20052;-75
2021/03/05 09:13:19;;;;;;;4.88;0.98;;;4.30;75.50;;;;;;5077098;28;20024;-75
2021/03/05 09:15:47;;;;;;;0.75;0.08;;;4.40;74.10;;;;;;5072378;28;20032;-75
2021/03/05 09:18:16;;;;;;;0.63;0.00;;;4.40;74.20;;;;;;5078135;28;20017;-75
2021/03/05 09:20:46;;;;;;;2.45;0.00;;;4.50;69.90;;;;;;5099598;22;20325;-74
2021/03/05 09:23:29;;;;;;;2.10;0.00;;;4.50;69.90;;;;;;5077229;28;20028;-75
2021/03/05 09:26:09;;;;;;;0.98;0.00;;;4.60;67.30;;;;;;5090768;22;20036;-74
2021/03/05 09:28:43;;;;;;;1.88;0.43;;;4.60;65.60;;;;;;5075657;28;20411;-73
2021/03/05 09:31:11;;;;;;;0.20;0.00;;;4.70;66.60;;;;;;5078511;22;20044;-73
2021/03/05 09:33:42;;;;;;;4.57;0.00;;;4.80;64.00;;;;;;5093050;22;20044;-73
2021/03/05 09:36:15;;;;;;;1.85;0.00;;;4.80;62.70;;;;;;5059307;28;20017;-73
2021/03/05 09:39:07;;;;;;;3.33;0.08;;;4.90;62.20;;;;;;5053930;28;20047;-74
2021/03/05 09:41:33;;;;;;;0.30;0.00;;;4.90;60.30;;;;;;5060471;28;20543;-74
2021/03/05 09:44:06;;;;;;;1.73;0.22;;;5.00;60.40;;;;;;5058010;28;20009;-73
2021/03/05 09:46:33;;;;;;;0.10;0.00;;;5.00;61.00;;;;;;5077492;28;20016;-74
2021/03/05 09:51:38;;;;;;;0.95;0.00;;;5.20;59.40;;;;;;5115139;28;20047;-74
2021/03/05 09:54:03;;;;;;;2.10;0.00;;;5.20;59.10;;;;;;5111167;22;20032;-73
2021/03/05 09:56:48;;;;;;;1.38;0.15;;;5.30;59.00;;;;;;5098119;28;20031;-74
2021/03/05 09:59:14;;;;;;;0.00;0.00;;;5.40;59.30;;;;;;5097379;28;20043;-73
2021/03/05 10:01:42;;;;;;;0.93;0.00;;;5.50;56.00;;;;;;5106058;22;20487;-74
2021/03/05 10:04:10;;;;;;;0.28;0.20;;;5.60;57.10;;;;;;5075670;28;20402;-73
2021/03/05 10:06:36;;;;;;;1.27;0.00;;;5.60;54.90;;;;;;5076165;28;20090;-74
2021/03/05 10:09:12;;;;;;;0.52;0.00;;;5.70;53.20;;;;;;5058286;28;20390;-74
2021/03/05 10:11:39;;;;;;;5.28;0.10;;;5.70;52.00;;;;;;5076350;28;20414;-73
2021/03/05 10:14:10;;;;;;;0.30;0.00;;;5.70;49.80;;;;;;5058637;28;20100;-74
2021/03/05 10:16:41;;;;;;;1.27;0.00;;;5.70;51.50;;;;;;5057796;28;20028;-73
2021/03/05 10:19:08;;;;;;;0.00;0.00;;;5.80;51.90;;;;;;5076113;28;20021;-73
2021/03/05 10:21:38;;;;;;;1.98;0.00;;;5.80;51.90;;;;;;5075784;28;20024;-73
2021/03/05 10:24:06;;;;;;;2.88;0.22;;;5.90;52.70;;;;;;5058093;28;20115;-75
2021/03/05 10:26:32;;;;;;;2.92;0.47;;;5.90;50.60;;;;;;5057630;28;20032;-74
2021/03/05 10:29:03;;;;;;;0.00;0.00;;;5.90;50.50;;;;;;5057073;28;20475;-75
2021/03/05 10:31:58;;;;;;;0.40;0.00;;;6.00;53.20;;;;;;5074008;28;20027;-75
2021/03/05 10:34:31;;;;;;;1.35;0.00;;;6.10;52.60;;;;;;5042498;28;20045;-75
2021/03/05 10:37:02;;;;;;;2.70;0.00;;;6.20;53.70;;;;;;5062358;28;20021;-77
2021/03/05 10:39:31;;;;;;;4.20;0.00;;;6.30;52.20;;;;;;5054738;28;20063;-75
2021/03/05 10:42:02;;;;;;;0.73;0.00;;;6.30;52.70;;;;;;5070433;28;20466;-75
2021/03/05 10:44:31;;;;;;;1.55;0.00;;;6.40;51.70;;;;;;5057618;28;20120;-75
2021/03/05 10:47:01;;;;;;;4.38;0.60;;;6.40;52.80;;;;;;5057174;28;20063;-75
2021/03/05 10:49:28;;;;;;;0.95;0.00;;;6.50;53.10;;;;;;5056378;28;20020;-74
2021/03/05 10:51:55;;;;;;;2.20;0.00;;;6.60;51.70;;;;;;5057210;28;20013;-75
2021/03/05 10:54:20;;;;;;;1.90;0.00;;;6.60;53.00;;;;;;5076084;28;20134;-74
2021/03/05 10:56:50;;;;;;;0.32;0.00;;;6.70;53.50;;;;;;5052055;28;20082;-74
2021/03/05 10:59:18;;;;;;;0.50;0.00;;;6.80;54.10;;;;;;5075010;28;20028;-75
2021/03/05 11:01:44;;;;;;;0.55;0.00;;;6.90;53.10;;;;;;5057087;28;20029;-74
2021/03/05 11:04:10;;;;;;;2.35;0.00;;;7.00;54.20;;;;;;5074522;28;20055;-75
2021/03/05 11:06:36;;;;;;;0.30;0.00;;;7.10;53.80;;;;;;5090312;28;20036;-75
2021/03/05 11:09:04;;;;;;;0.45;0.00;;;7.20;53.50;;;;;;5056320;28;20478;-75
2021/03/05 11:11:29;;;;;;;1.13;0.20;;;7.30;52.30;;;;;;5074074;28;20104;-75
2021/03/05 11:13:55;;;;;;;1.48;0.00;;;7.40;53.00;;;;;;5074349;28;20124;-75
2021/03/05 11:16:20;;;;;;;0.85;0.00;;;7.40;53.10;;;;;;5056216;28;20024;-75
2021/03/05 11:18:46;;;;;;;1.65;0.00;;;7.80;53.20;;;;;;5056758;28;20032;-75
2021/03/05 11:21:12;;;;;;;0.75;0.00;;;7.60;51.30;;;;;;5074336;28;20021;-75
2021/03/05 11:23:37;;;;;;;0.60;0.00;;;7.60;51.50;;;;;;5074232;28;20029;-74
2021/03/05 11:26:03;;;;;;;1.98;0.00;;;7.70;52.10;;;;;;5075254;28;20021;-75
2021/03/05 11:28:28;;;;;;;0.70;0.00;;;7.80;51.80;;;;;;5076763;28;20501;-75
2021/03/05 11:30:54;;;;;;;3.20;0.30;;;7.80;51.40;;;;;;5074488;28;20067;-75
2021/03/05 11:33:20;;;;;;;1.38;0.00;;;7.90;52.40;;;;;;5074000;28;20024;-73
2021/03/05 11:35:45;;;;;;;1.45;0.00;;;8.00;53.00;;;;;;5056570;28;20035;-74
2021/03/05 11:38:11;;;;;;;1.27;0.00;;;8.10;52.70;;;;;;5113476;22;20043;-74
2021/03/05 11:40:37;;;;;;;1.45;0.00;;;8.30;51.20;;;;;;5114855;28;20027;-74
2021/03/05 11:43:03;;;;;;;0.93;0.20;;;8.30;49.40;;;;;;5114317;28;20030;-75
2021/03/05 11:45:29;;;;;;;0.00;0.00;;;8.40;51.70;;;;;;5108799;28;20028;-74
2021/03/05 11:47:55;;;;;;;0.68;0.00;;;8.50;51.20;;;;;;5103723;28;20034;-75
2021/03/05 11:50:21;;;;;;;3.10;0.20;;;8.60;50.40;;;;;;5100372;28;20500;-74
2021/03/05 11:52:46;;;;;;;2.00;0.10;;;8.60;51.00;;;;;;5094817;28;20069;-74
2021/03/05 11:55:12;;;;;;;0.40;0.00;;;8.70;50.50;;;;;;5093569;28;20432;-75
2021/03/05 11:57:38;;;;;;;0.30;0.00;;;8.80;49.80;;;;;;5105267;22;20012;-75
2021/03/05 12:00:06;;;;;;;2.28;0.00;;;8.80;50.70;;;;;;5073878;28;20033;-75
2021/03/05 12:02:32;;;;;;;2.17;0.00;;;8.80;51.30;;;;;;5073701;28;20051;-76
2021/03/05 12:04:57;;;;;;;0.43;0.13;;;8.70;50.40;;;;;;5074814;28;20016;-77
2021/03/05 12:07:23;;;;;;;1.60;0.35;;;8.70;50.40;;;;;;5073800;28;20077;-78
2021/03/05 12:09:48;;;;;;;2.72;0.10;;;8.70;49.80;;;;;;5073644;28;20017;-77
2021/03/05 12:12:14;;;;;;;2.80;0.10;;;8.70;49.70;;;;;;5074359;28;20099;-72
2021/03/05 12:14:40;;;;;;;0.40;0.00;;;9.00;50.40;;;;;;5073943;28;20031;-75
2021/03/05 12:17:05;;;;;;;2.35;0.00;;;9.20;51.00;;;;;;5119867;22;20473;-76
2021/03/05 12:19:31;;;;;;;0.65;0.10;;;9.40;49.70;;;;;;5113021;28;20394;-76
2021/03/05 12:21:57;;;;;;;2.80;0.00;;;9.60;49.80;;;;;;5114911;28;20093;-77
2021/03/05 12:24:22;;;;;;;1.98;0.15;;;9.70;47.00;;;;;;5120209;22;20441;-76
2021/03/05 12:26:48;;;;;;;1.45;0.00;;;9.70;47.50;;;;;;5074861;28;20029;-76
2021/03/05 12:29:14;;;;;;;3.78;0.13;;;9.80;46.50;;;;;;5074416;28;20390;-77
2021/03/05 12:31:39;;;;;;;1.05;0.20;;;9.80;46.90;;;;;;5074130;28;20017;-77
2021/03/05 12:34:05;;;;;;;3.05;0.47;;;9.90;48.00;;;;;;5073760;28;20032;-76
2021/03/05 12:36:30;;;;;;;0.65;0.00;;;10.20;46.60;;;;;;5075141;28;20023;-75
2021/03/05 12:38:56;;;;;;;4.30;0.32;;;10.20;45.50;;;;;;5073628;28;20501;-77
2021/03/05 12:41:22;;;;;;;1.75;0.28;;;10.40;44.90;;;;;;5056948;22;20400;-76
2021/03/05 12:43:48;;;;;;;1.70;0.00;;;10.70;46.50;;;;;;5028474;22;20479;-78
2021/03/05 12:46:13;;;;;;;6.50;0.63;;;10.80;46.20;;;;;;5053527;28;20024;-77
2021/03/05 12:48:39;;;;;;;2.72;0.00;;;11.00;46.60;;;;;;5062589;22;20056;-76
2021/03/05 12:51:05;;;;;;;2.13;0.00;;;11.20;43.90;;;;;;5036075;28;20025;-76
2021/03/05 12:53:31;;;;;;;1.45;0.00;;;11.20;44.50;;;;;;5036000;28;20013;-77
2021/03/05 12:55:57;;;;;;;2.85;0.00;;;11.20;45.00;;;;;;5034166;28;20017;-75
2021/03/05 12:58:24;;;;;;;1.70;0.00;;;11.20;44.20;;;;;;5035190;28;20025;-76
2021/03/05 13:00:50;;;;;;;4.25;0.03;;;11.00;45.20;;;;;;5052446;28;20402;-76
2021/03/05 13:03:15;;;;;;;2.33;0.00;;;10.70;46.30;;;;;;5034381;28;20113;-76
2021/03/05 13:05:41;;;;;;;5.60;0.10;;;10.60;47.40;;;;;;5033236;28;20033;-76